Time;durP1;ratioP1;P1;durP2;ratioP2;P2;SDS_P1;SDS_P2;PMS_P1;PMS_P2;Temp;Humidity;BMP_temperature;BMP_pressure;BME280_temperature;BME280_humidity;BME280_pressure;Samples;Min_cycle;Max_cycle;Signal;HPM_P1;HPM_P2
2024/04/02 00:01:22;;;;;;;3.03;2.25;;;13.90;77.40;;;;;;4960848;28;20031;-33
2024/04/02 00:03:47;;;;;;;2.40;1.90;;;13.90;77.50;;;;;;4962414;28;20020;-35
2024/04/02 00:06:13;;;;;;;2.97;1.92;;;13.80;77.40;;;;;;4964505;28;20574;-35
2024/04/02 00:08:39;;;;;;;2.60;2.10;;;13.80;77.40;;;;;;4956433;28;20031;-33
2024/04/02 00:11:06;;;;;;;2.83;2.05;;;13.80;77.40;;;;;;4958860;28;20051;-34
2024/04/02 00:13:34;;;;;;;3.83;2.10;;;13.80;77.50;;;;;;4957641;28;20079;-33
2024/04/02 00:16:00;;;;;;;2.63;2.00;;;13.70;77.40;;;;;;4958573;28;20023;-33
2024/04/02 00:18:26;;;;;;;2.17;1.90;;;13.70;77.40;;;;;;4958833;28;20502;-35
2024/04/02 00:20:52;;;;;;;2.33;1.90;;;13.70;77.40;;;;;;4960495;28;20480;-36
2024/04/02 00:23:18;;;;;;;2.53;1.98;;;13.70;77.40;;;;;;4961646;28;20134;-34
2024/04/02 00:25:44;;;;;;;1.92;1.70;;;13.70;77.50;;;;;;4945059;29;20541;-35
2024/04/02 00:28:13;;;;;;;3.05;1.77;;;13.70;77.40;;;;;;4980553;28;20043;-34
2024/04/02 00:30:40;;;;;;;2.08;1.80;;;13.70;77.50;;;;;;4962871;28;20062;-35
2024/04/02 00:33:06;;;;;;;2.20;1.90;;;13.60;77.50;;;;;;4961258;28;20031;-33
2024/04/02 00:35:32;;;;;;;2.28;1.75;;;13.60;77.50;;;;;;4964269;28;20023;-33
2024/04/02 00:37:57;;;;;;;2.30;1.80;;;13.60;77.50;;;;;;4989286;28;20031;-34
2024/04/02 00:40:23;;;;;;;1.95;1.70;;;13.50;77.40;;;;;;4975282;28;20041;-36
2024/04/02 00:42:49;;;;;;;2.00;1.63;;;13.50;77.50;;;;;;4966073;28;20039;-36
2024/04/02 00:45:15;;;;;;;2.08;1.70;;;13.50;77.60;;;;;;4966090;28;20046;-33
2024/04/02 00:47:41;;;;;;;1.92;1.70;;;13.50;77.50;;;;;;4959709;28;20039;-35
2024/04/02 00:50:09;;;;;;;2.40;1.80;;;13.50;77.60;;;;;;4974995;28;20031;-33
2024/04/02 00:52:35;;;;;;;2.25;1.60;;;13.50;78.20;;;;;;4975170;28;20059;-33
2024/04/02 00:55:02;;;;;;;2.00;1.80;;;13.40;77.60;;;;;;4963679;28;20035;-37
2024/04/02 00:57:28;;;;;;;2.40;1.80;;;13.40;77.60;;;;;;4958475;28;20026;-34
2024/04/02 00:59:55;;;;;;;2.00;1.80;;;13.40;77.60;;;;;;4962300;28;20016;-34
2024/04/02 01:02:21;;;;;;;3.33;1.70;;;13.40;77.70;;;;;;4960004;28;20487;-32
2024/04/02 01:04:47;;;;;;;2.15;1.67;;;13.30;77.60;;;;;;4961443;28;20499;-36
2024/04/02 01:07:16;;;;;;;2.75;1.63;;;13.30;77.60;;;;;;4959940;28;20507;-34
2024/04/02 01:09:45;;;;;;;2.05;1.50;;;13.40;77.70;;;;;;4959036;29;20020;-36
2024/04/02 01:12:11;;;;;;;2.17;1.65;;;13.30;78.30;;;;;;4961690;28;20027;-35
2024/04/02 01:14:41;;;;;;;2.33;1.60;;;13.30;77.70;;;;;;4959704;28;20042;-32
2024/04/02 01:17:07;;;;;;;2.20;1.65;;;13.30;77.70;;;;;;4962050;28;20098;-37
2024/04/02 01:19:33;;;;;;;1.80;1.70;;;13.30;77.80;;;;;;4970018;28;20034;-32
2024/04/02 01:21:59;;;;;;;1.95;1.63;;;13.30;77.70;;;;;;4964981;28;20059;-35
2024/04/02 01:24:26;;;;;;;2.17;1.60;;;13.20;77.70;;;;;;4964404;28;20031;-31
2024/04/02 01:26:52;;;;;;;2.03;1.50;;;13.20;77.70;;;;;;4980459;28;20050;-36
2024/04/02 01:29:17;;;;;;;1.95;1.40;;;13.20;77.80;;;;;;4965633;28;20027;-37
2024/04/02 01:31:43;;;;;;;1.83;1.58;;;13.20;77.80;;;;;;4959594;28;20410;-31
2024/04/02 01:34:10;;;;;;;1.90;1.70;;;13.20;77.80;;;;;;4976045;28;20047;-32
2024/04/02 01:36:35;;;;;;;3.05;1.80;;;13.20;77.80;;;;;;4959366;28;20471;-34
2024/04/02 01:39:01;;;;;;;1.70;1.50;;;13.10;78.40;;;;;;4962477;28;20031;-33
2024/04/02 01:41:27;;;;;;;1.92;1.67;;;13.10;77.80;;;;;;4962035;28;20039;-33
2024/04/02 01:43:52;;;;;;;2.05;1.55;;;13.10;77.80;;;;;;4959149;28;20124;-32
2024/04/02 01:46:18;;;;;;;1.55;1.45;;;13.10;77.90;;;;;;4961715;28;20030;-32
2024/04/02 01:48:44;;;;;;;1.85;1.50;;;13.10;77.90;;;;;;4958657;28;20038;-39
2024/04/02 01:51:10;;;;;;;1.73;1.60;;;13.00;77.80;;;;;;4961092;28;20022;-33
2024/04/02 01:53:35;;;;;;;1.98;1.48;;;13.00;77.80;;;;;;4962079;28;20023;-35
2024/04/02 01:56:03;;;;;;;2.05;1.85;;;13.00;77.80;;;;;;4967040;28;20031;-32
2024/04/02 01:58:29;;;;;;;1.75;1.58;;;13.00;77.90;;;;;;4964050;28;20584;-31
2024/04/02 02:00:55;;;;;;;2.03;1.60;;;13.00;77.90;;;;;;4963221;28;20539;-33
2024/04/02 02:03:20;;;;;;;1.83;1.45;;;13.00;77.90;;;;;;4964504;28;20483;-31
2024/04/02 02:05:47;;;;;;;1.85;1.58;;;13.00;78.00;;;;;;4977559;28;20046;-34
2024/04/02 02:08:13;;;;;;;1.80;1.60;;;12.90;77.90;;;;;;4964904;28;20546;-36
2024/04/02 02:10:39;;;;;;;2.15;1.60;;;12.90;77.90;;;;;;4968254;28;20046;-35
2024/04/02 02:13:08;;;;;;;2.10;1.70;;;12.90;78.00;;;;;;4969052;28;20099;-33
2024/04/02 02:15:37;;;;;;;2.17;1.70;;;12.90;78.00;;;;;;4963043;28;20034;-36
2024/04/02 02:18:03;;;;;;;1.90;1.70;;;12.90;78.00;;;;;;4961158;28;20027;-34
2024/04/02 02:20:29;;;;;;;1.92;1.67;;;12.80;78.00;;;;;;4961499;28;20023;-35
2024/04/02 02:22:55;;;;;;;1.70;1.60;;;12.90;78.00;;;;;;4958811;28;20115;-31
2024/04/02 02:25:21;;;;;;;1.70;1.60;;;12.80;78.00;;;;;;4959743;28;20016;-35
2024/04/02 02:27:46;;;;;;;1.75;1.50;;;12.80;78.00;;;;;;4973577;28;20117;-34
2024/04/02 02:30:12;;;;;;;2.33;1.70;;;12.80;78.00;;;;;;4960433;28;20035;-34
2024/04/02 02:32:38;;;;;;;1.83;1.65;;;12.80;78.00;;;;;;4958682;28;20031;-34
2024/04/02 02:35:04;;;;;;;1.73;1.60;;;12.80;78.00;;;;;;4963008;28;20027;-34
2024/04/02 02:37:30;;;;;;;1.80;1.60;;;12.80;78.70;;;;;;4963007;28;20042;-31
2024/04/02 02:39:56;;;;;;;2.72;1.77;;;12.70;78.00;;;;;;4963906;28;20027;-34
2024/04/02 02:42:23;;;;;;;2.20;1.67;;;12.70;78.00;;;;;;4964273;28;20023;-36
2024/04/02 02:44:50;;;;;;;1.80;1.70;;;12.70;78.00;;;;;;4961522;28;20030;-34
2024/04/02 02:47:16;;;;;;;1.55;1.45;;;12.70;78.00;;;;;;4966036;28;20046;-36
2024/04/02 02:49:41;;;;;;;2.30;1.50;;;12.70;78.00;;;;;;4962206;28;20016;-35
2024/04/02 02:52:07;;;;;;;2.28;1.70;;;12.70;78.00;;;;;;4963431;28;20023;-37
2024/04/02 02:54:33;;;;;;;2.47;1.70;;;12.70;78.00;;;;;;4963933;28;20120;-33
2024/04/02 02:56:58;;;;;;;2.10;1.58;;;12.60;78.00;;;;;;4962034;28;20031;-33
2024/04/02 02:59:24;;;;;;;1.50;1.40;;;12.60;78.10;;;;;;4963924;28;20038;-33
2024/04/02 03:01:50;;;;;;;2.63;1.98;;;12.50;78.00;;;;;;4975972;28;20051;-33
2024/04/02 03:04:23;;;;;;;1.83;1.55;;;12.60;78.10;;;;;;5084129;27;20941;-37
2024/04/02 03:06:49;;;;;;;2.00;1.70;;;12.60;78.20;;;;;;5069923;28;20013;-34
2024/04/02 03:09:15;;;;;;;4.20;1.70;;;12.60;78.20;;;;;;5069632;28;20062;-32
2024/04/02 03:11:41;;;;;;;1.95;1.60;;;12.50;78.10;;;;;;5072775;28;20031;-38
2024/04/02 03:14:06;;;;;;;2.60;1.83;;;12.50;78.60;;;;;;5068274;28;20075;-32
2024/04/02 03:16:32;;;;;;;2.67;1.77;;;12.50;78.10;;;;;;5075317;28;20021;-33
2024/04/02 03:18:58;;;;;;;2.08;1.70;;;12.50;78.10;;;;;;5072957;28;20025;-35
2024/04/02 03:21:23;;;;;;;2.30;1.70;;;12.50;78.20;;;;;;5077807;28;20025;-33
2024/04/02 03:23:49;;;;;;;2.78;1.70;;;12.50;78.20;;;;;;5063570;28;20056;-31
2024/04/02 03:26:15;;;;;;;1.95;1.67;;;12.40;78.30;;;;;;5076086;28;20063;-31
2024/04/02 03:28:41;;;;;;;2.20;1.85;;;12.40;78.10;;;;;;5071316;28;20029;-30
2024/04/02 03:31:07;;;;;;;2.13;1.63;;;12.40;78.10;;;;;;5073244;28;20009;-38
2024/04/02 03:33:33;;;;;;;2.35;1.65;;;12.40;78.20;;;;;;5076771;28;20056;-34
2024/04/02 03:36:04;;;;;;;2.22;1.80;;;12.40;78.20;;;;;;5088117;28;20017;-34
2024/04/02 03:38:30;;;;;;;2.15;1.90;;;12.40;78.20;;;;;;5074465;28;20448;-37
2024/04/02 03:41:08;;;;;;;2.10;1.88;;;12.40;78.20;;;;;;5073866;28;20021;-34
2024/04/02 03:43:38;;;;;;;1.83;1.67;;;12.40;78.20;;;;;;5073961;28;20040;-34
2024/04/02 03:46:05;;;;;;;2.35;1.65;;;12.30;78.20;;;;;;5091338;28;20025;-33
2024/04/02 03:48:31;;;;;;;2.88;1.67;;;12.30;78.20;;;;;;5075645;28;20028;-34
2024/04/02 03:50:57;;;;;;;1.98;1.70;;;12.30;78.20;;;;;;5075777;28;20372;-34
2024/04/02 03:53:23;;;;;;;2.30;1.52;;;12.30;78.20;;;;;;5103215;28;20029;-35
2024/04/02 03:55:56;;;;;;;2.55;1.63;;;12.30;78.30;;;;;;5081020;28;20551;-37
2024/04/02 03:58:22;;;;;;;2.50;1.95;;;12.30;78.30;;;;;;5072070;28;20033;-35
2024/04/02 04:00:47;;;;;;;2.28;1.60;;;12.30;78.30;;;;;;5074372;28;20102;-33
2024/04/02 04:03:14;;;;;;;1.70;1.60;;;12.30;78.30;;;;;;5058737;28;20040;-37
2024/04/02 04:05:40;;;;;;;1.80;1.60;;;12.20;78.30;;;;;;5072954;28;20562;-34
2024/04/02 04:08:06;;;;;;;3.60;1.80;;;12.20;78.30;;;;;;5068431;28;20037;-33
2024/04/02 04:10:37;;;;;;;1.60;1.48;;;12.20;78.30;;;;;;5069116;28;20020;-35
2024/04/02 04:13:04;;;;;;;1.90;1.60;;;12.20;78.40;;;;;;5069898;28;20120;-32
2024/04/02 04:15:30;;;;;;;2.55;1.70;;;12.20;78.30;;;;;;5054423;28;20032;-33
2024/04/02 04:17:55;;;;;;;1.63;1.50;;;12.20;78.40;;;;;;5055855;28;20033;-31
2024/04/02 04:20:21;;;;;;;2.33;1.75;;;12.20;78.40;;;;;;5056385;28;20093;-31
2024/04/02 04:22:50;;;;;;;2.28;1.80;;;12.10;78.30;;;;;;5054380;28;20044;-32
2024/04/02 04:25:16;;;;;;;3.58;1.60;;;12.20;78.40;;;;;;5055815;28;20029;-36
2024/04/02 04:27:45;;;;;;;3.35;2.03;;;12.10;78.40;;;;;;5053382;28;20017;-35
2024/04/02 04:30:11;;;;;;;1.88;1.65;;;12.10;78.30;;;;;;5056607;28;20036;-34
2024/04/02 04:32:37;;;;;;;1.60;1.50;;;12.10;78.40;;;;;;5059401;28;20140;-33
2024/04/02 04:35:03;;;;;;;2.85;1.70;;;12.10;78.30;;;;;;5053139;28;20049;-36
2024/04/02 04:37:32;;;;;;;1.73;1.60;;;12.10;78.40;;;;;;5055489;28;20440;-36
2024/04/02 04:39:59;;;;;;;2.35;1.70;;;12.10;78.40;;;;;;5041105;28;20155;-33
2024/04/02 04:42:24;;;;;;;2.17;1.75;;;12.00;78.40;;;;;;5069709;28;20037;-32
2024/04/02 04:44:50;;;;;;;2.25;1.73;;;12.00;79.00;;;;;;5034593;28;20025;-35
2024/04/02 04:47:16;;;;;;;2.42;1.70;;;12.00;78.40;;;;;;5054603;28;20028;-34
2024/04/02 04:49:42;;;;;;;1.63;1.50;;;12.00;78.40;;;;;;5053758;28;21269;-34
2024/04/02 04:52:08;;;;;;;2.80;1.70;;;12.00;79.00;;;;;;5064252;28;20032;-32
2024/04/02 04:54:34;;;;;;;2.33;1.58;;;12.00;78.40;;;;;;5053651;28;20033;-36
2024/04/02 04:57:01;;;;;;;2.15;1.83;;;12.00;78.40;;;;;;5052106;28;20028;-32
2024/04/02 04:59:26;;;;;;;1.70;1.60;;;12.00;78.50;;;;;;5057169;28;20025;-33
2024/04/02 05:01:52;;;;;;;2.00;1.65;;;12.00;78.50;;;;;;5051287;28;20028;-35
2024/04/02 05:04:18;;;;;;;2.35;1.60;;;11.90;78.40;;;;;;5056276;28;20068;-35
2024/04/02 05:06:44;;;;;;;2.30;1.73;;;11.90;78.50;;;;;;5057656;28;20484;-32
2024/04/02 05:09:11;;;;;;;2.70;1.77;;;11.90;78.50;;;;;;5049779;28;20053;-37
2024/04/02 05:11:37;;;;;;;2.60;1.60;;;11.90;78.50;;;;;;5058165;28;20074;-34
2024/04/02 05:14:03;;;;;;;1.65;1.55;;;11.90;78.50;;;;;;5089378;28;20024;-36
2024/04/02 05:16:29;;;;;;;2.13;1.65;;;11.90;78.50;;;;;;5054984;28;20025;-33
2024/04/02 05:18:55;;;;;;;2.17;1.70;;;11.90;78.50;;;;;;5044109;28;20433;-34
2024/04/02 05:21:22;;;;;;;1.63;1.50;;;11.90;78.50;;;;;;5055277;28;20051;-32
2024/04/02 05:23:48;;;;;;;2.80;1.80;;;11.90;78.50;;;;;;5067586;28;20063;-32
2024/04/02 05:26:13;;;;;;;2.15;1.67;;;11.90;78.50;;;;;;5052253;28;20032;-33
2024/04/02 05:28:40;;;;;;;1.75;1.60;;;11.90;78.50;;;;;;5035624;28;20034;-33
2024/04/02 05:31:07;;;;;;;2.30;1.90;;;11.90;78.50;;;;;;5051495;28;20089;-35
2024/04/02 05:33:33;;;;;;;1.70;1.60;;;11.90;78.50;;;;;;5053842;28;20060;-30
2024/04/02 05:36:00;;;;;;;1.67;1.58;;;11.90;78.60;;;;;;5052802;28;20029;-34
2024/04/02 05:38:26;;;;;;;1.55;1.45;;;11.80;78.50;;;;;;5054934;28;20072;-34
2024/04/02 05:40:52;;;;;;;2.42;1.80;;;11.80;78.50;;;;;;5048694;28;20033;-32
2024/04/02 05:43:18;;;;;;;1.92;1.60;;;11.80;78.50;;;;;;5053619;28;20467;-32
2024/04/02 05:45:43;;;;;;;2.25;1.70;;;11.80;78.50;;;;;;5051527;28;20021;-34
2024/04/02 05:48:09;;;;;;;1.67;1.58;;;11.80;78.50;;;;;;5057688;28;20104;-36
2024/04/02 05:50:35;;;;;;;2.55;1.60;;;11.80;78.50;;;;;;5063311;28;20031;-33
2024/04/02 05:53:01;;;;;;;2.03;1.80;;;11.80;78.50;;;;;;5058820;28;20496;-34
2024/04/02 05:55:27;;;;;;;3.13;1.70;;;11.80;78.60;;;;;;5060874;28;20035;-34
2024/04/02 05:57:55;;;;;;;2.42;1.70;;;11.80;78.60;;;;;;5059335;28;20094;-30
2024/04/02 06:00:21;;;;;;;2.13;1.75;;;11.80;78.60;;;;;;5067673;28;20410;-33
2024/04/02 06:02:46;;;;;;;2.22;1.75;;;11.80;78.60;;;;;;5061372;28;20040;-34
2024/04/02 06:05:12;;;;;;;2.53;1.70;;;11.80;78.50;;;;;;5059152;28;20060;-34
2024/04/02 06:07:38;;;;;;;3.15;1.77;;;11.80;78.50;;;;;;5053311;28;20025;-34
2024/04/02 06:10:04;;;;;;;2.88;1.60;;;11.90;78.60;;;;;;5054335;28;20472;-33
2024/04/02 06:12:30;;;;;;;2.97;1.80;;;11.80;78.60;;;;;;5056855;28;20022;-32
2024/04/02 06:14:56;;;;;;;2.53;1.75;;;11.90;78.60;;;;;;5050983;28;20025;-32
2024/04/02 06:17:22;;;;;;;2.33;1.80;;;11.90;78.60;;;;;;5059953;28;20546;-35
2024/04/02 06:19:47;;;;;;;1.92;1.70;;;11.90;78.60;;;;;;5052838;28;20029;-33
2024/04/02 06:22:13;;;;;;;2.03;1.83;;;11.90;78.60;;;;;;5091309;28;20041;-33
2024/04/02 06:24:39;;;;;;;3.35;1.80;;;11.90;78.60;;;;;;5060656;28;20507;-34
2024/04/02 06:27:05;;;;;;;2.38;1.90;;;11.90;78.70;;;;;;5057786;28;20028;-32
2024/04/02 06:29:31;;;;;;;2.38;1.63;;;11.90;78.70;;;;;;5060747;28;20017;-38
2024/04/02 06:31:57;;;;;;;2.67;1.73;;;11.90;78.70;;;;;;5045135;28;20477;-35
2024/04/02 06:34:23;;;;;;;2.08;1.60;;;11.90;78.70;;;;;;5060421;28;20048;-31
2024/04/02 06:36:49;;;;;;;1.98;1.65;;;11.90;78.60;;;;;;5056899;28;20036;-34
2024/04/02 06:39:14;;;;;;;2.67;1.70;;;11.90;78.70;;;;;;5054180;28;20025;-35
2024/04/02 06:41:40;;;;;;;2.85;1.60;;;11.90;78.70;;;;;;5043906;28;20442;-32
2024/04/02 06:44:06;;;;;;;2.53;1.80;;;12.00;78.70;;;;;;5057021;28;20037;-32
2024/04/02 06:46:31;;;;;;;2.88;1.80;;;11.90;78.70;;;;;;5061071;28;20021;-36
2024/04/02 06:48:58;;;;;;;2.28;1.73;;;11.90;78.70;;;;;;5040132;28;20057;-35
2024/04/02 06:51:24;;;;;;;2.53;1.80;;;11.90;78.80;;;;;;5055936;28;20068;-36
2024/04/02 06:53:50;;;;;;;2.40;1.90;;;12.00;78.70;;;;;;5049592;28;20033;-34
2024/04/02 06:56:16;;;;;;;2.05;1.73;;;12.00;78.70;;;;;;5055492;28;20034;-36
2024/04/02 06:58:42;;;;;;;3.55;2.00;;;12.00;78.70;;;;;;5056475;28;20017;-32
2024/04/02 07:01:08;;;;;;;3.13;1.70;;;12.00;78.80;;;;;;5057269;28;20092;-32
2024/04/02 07:03:34;;;;;;;3.05;1.83;;;12.00;78.80;;;;;;5058877;28;20044;-33
2024/04/02 07:06:00;;;;;;;3.22;2.10;;;12.00;78.80;;;;;;5057151;28;20109;-33
2024/04/02 07:08:26;;;;;;;3.17;1.90;;;12.00;78.80;;;;;;5055617;28;20081;-32
2024/04/02 07:11:04;;;;;;;2.92;2.00;;;12.00;78.80;;;;;;5061080;28;20059;-34
2024/04/02 07:13:30;;;;;;;1.85;1.58;;;12.10;78.80;;;;;;5061191;28;20029;-37
2024/04/02 07:15:57;;;;;;;2.67;1.70;;;12.00;78.70;;;;;;5060654;28;20069;-32
2024/04/02 07:18:22;;;;;;;3.17;1.90;;;12.10;78.80;;;;;;5050575;28;20029;-31
2024/04/02 07:20:59;;;;;;;3.30;2.08;;;12.10;78.80;;;;;;5058659;28;20060;-33
2024/04/02 07:23:25;;;;;;;4.72;1.98;;;12.10;78.80;;;;;;5066925;28;20036;-35
2024/04/02 07:25:50;;;;;;;2.20;1.80;;;12.10;78.70;;;;;;5060027;28;20078;-34
2024/04/02 07:28:16;;;;;;;3.03;2.10;;;12.10;78.70;;;;;;5049338;28;20025;-33
2024/04/02 07:30:42;;;;;;;3.22;2.17;;;12.20;78.80;;;;;;5054477;28;20025;-34
2024/04/02 07:33:08;;;;;;;3.25;2.00;;;12.20;78.80;;;;;;5060404;28;20025;-33
2024/04/02 07:35:36;;;;;;;2.50;2.00;;;12.20;78.80;;;;;;5059268;28;20075;-33
2024/04/02 07:38:01;;;;;;;3.30;2.20;;;12.20;79.40;;;;;;5058514;28;20029;-36
2024/04/02 07:40:27;;;;;;;3.65;2.03;;;12.20;78.70;;;;;;5058838;28;20040;-34
2024/04/02 07:42:53;;;;;;;3.33;2.00;;;12.20;78.70;;;;;;5059985;28;20037;-35
2024/04/02 07:45:19;;;;;;;3.33;2.17;;;12.30;78.70;;;;;;5058679;28;20044;-35
2024/04/02 07:47:47;;;;;;;3.45;2.10;;;12.30;78.70;;;;;;5057695;28;20017;-33
2024/04/02 07:50:13;;;;;;;3.40;1.92;;;12.30;78.70;;;;;;5062297;28;20104;-34
2024/04/02 07:52:39;;;;;;;3.40;2.20;;;12.30;78.70;;;;;;5060909;28;20059;-31
2024/04/02 07:55:05;;;;;;;4.65;2.20;;;12.30;78.60;;;;;;5054531;28;20025;-32
2024/04/02 07:57:30;;;;;;;3.83;2.25;;;12.30;78.70;;;;;;5056334;28;20033;-33
2024/04/02 07:59:56;;;;;;;3.22;2.30;;;12.40;78.70;;;;;;5046213;28;20041;-36
2024/04/02 08:02:22;;;;;;;4.28;2.60;;;12.40;78.70;;;;;;5055557;28;20033;-32
2024/04/02 08:04:51;;;;;;;3.47;1.90;;;12.40;78.60;;;;;;5058069;28;20040;-34
2024/04/02 08:07:20;;;;;;;4.93;2.40;;;12.40;78.60;;;;;;5049476;28;20032;-36
2024/04/02 08:09:46;;;;;;;3.17;2.03;;;12.50;78.60;;;;;;5056230;28;20094;-34
2024/04/02 08:12:13;;;;;;;4.45;2.13;;;12.50;78.60;;;;;;5063692;28;20433;-34
2024/04/02 08:14:39;;;;;;;4.18;2.20;;;12.50;78.60;;;;;;5061092;28;20107;-33
2024/04/02 08:17:05;;;;;;;4.60;2.28;;;12.50;78.60;;;;;;5059291;28;20040;-36
2024/04/02 08:19:30;;;;;;;3.72;2.30;;;12.50;78.60;;;;;;5048845;28;20021;-36
2024/04/02 08:21:56;;;;;;;5.50;2.35;;;12.50;78.60;;;;;;5062196;28;20116;-33
2024/04/02 08:24:25;;;;;;;4.20;2.40;;;12.50;78.50;;;;;;5059186;28;20117;-33
2024/04/02 08:26:51;;;;;;;6.05;2.33;;;12.60;78.60;;;;;;5056042;28;20112;-34
2024/04/02 08:29:17;;;;;;;4.43;2.38;;;12.60;78.60;;;;;;5057131;28;20025;-33
2024/04/02 08:31:42;;;;;;;4.18;2.30;;;12.60;78.60;;;;;;5055594;28;20420;-35
2024/04/02 08:34:08;;;;;;;4.50;2.30;;;12.60;78.50;;;;;;5061972;28;20064;-32
2024/04/02 08:36:34;;;;;;;4.22;2.38;;;12.60;78.60;;;;;;5056883;28;20071;-33
2024/04/02 08:39:00;;;;;;;3.47;1.98;;;12.70;78.60;;;;;;5043813;28;20057;-36
2024/04/02 08:41:26;;;;;;;5.13;2.35;;;12.70;78.50;;;;;;5063872;28;20029;-36
2024/04/02 08:43:57;;;;;;;4.18;2.58;;;12.70;78.50;;;;;;5061104;28;20048;-33
2024/04/02 08:46:28;;;;;;;3.40;2.03;;;12.70;78.50;;;;;;5055658;28;20468;-32
2024/04/02 08:48:56;;;;;;;5.15;2.33;;;12.70;78.50;;;;;;5055082;28;20025;-33
2024/04/02 08:51:22;;;;;;;5.53;2.30;;;12.80;78.60;;;;;;5063165;28;20031;-33
2024/04/02 08:53:48;;;;;;;3.75;2.17;;;12.80;78.50;;;;;;5050557;28;20029;-35
2024/04/02 08:56:17;;;;;;;3.30;1.95;;;12.80;78.50;;;;;;5056552;28;20444;-34
2024/04/02 08:58:44;;;;;;;4.68;2.50;;;12.80;78.50;;;;;;5059216;28;20058;-37
2024/04/02 09:01:14;;;;;;;3.92;2.20;;;12.80;78.50;;;;;;5056172;28;20034;-34
2024/04/02 09:03:41;;;;;;;2.55;2.08;;;12.80;78.50;;;;;;5052189;28;20072;-32
2024/04/02 09:06:07;;;;;;;3.90;2.17;;;12.80;78.50;;;;;;5063195;28;20044;-33
2024/04/02 09:08:46;;;;;;;4.53;2.20;;;12.90;78.50;;;;;;5059835;28;20025;-35
2024/04/02 09:11:13;;;;;;;4.28;2.20;;;12.90;78.50;;;;;;5061382;28;20025;-31
2024/04/02 09:13:42;;;;;;;3.40;1.90;;;12.90;78.40;;;;;;5060592;28;20009;-33
2024/04/02 09:16:08;;;;;;;4.60;2.15;;;12.90;78.40;;;;;;5061130;28;20032;-34
2024/04/02 09:18:40;;;;;;;4.32;2.10;;;12.90;78.30;;;;;;5060639;28;20025;-35
2024/04/02 09:21:06;;;;;;;3.97;2.17;;;13.00;78.40;;;;;;5057609;28;20025;-35
2024/04/02 09:23:32;;;;;;;3.15;1.90;;;13.00;78.30;;;;;;5061675;28;20057;-32
2024/04/02 09:25:58;;;;;;;3.88;1.98;;;13.00;78.40;;;;;;5060280;28;20686;-34
2024/04/02 09:28:24;;;;;;;4.45;2.15;;;13.00;78.40;;;;;;5062407;28;20035;-34
2024/04/02 09:30:51;;;;;;;2.45;1.80;;;13.00;78.30;;;;;;5060640;28;20021;-34
2024/04/02 09:33:17;;;;;;;4.13;2.08;;;13.10;78.30;;;;;;5054996;28;20021;-38
2024/04/02 09:35:46;;;;;;;3.90;2.40;;;13.00;78.30;;;;;;5058815;28;20021;-31
2024/04/02 09:38:14;;;;;;;3.72;1.90;;;13.10;78.30;;;;;;5055637;28;20033;-32
2024/04/02 09:40:42;;;;;;;4.50;1.98;;;13.10;78.20;;;;;;5060440;28;20017;-33
2024/04/02 09:43:10;;;;;;;3.00;1.70;;;13.20;78.90;;;;;;5043879;28;20093;-33
2024/04/02 09:45:36;;;;;;;3.95;2.10;;;13.20;78.20;;;;;;5048407;28;20025;-36
2024/04/02 09:48:03;;;;;;;3.38;1.70;;;13.20;78.20;;;;;;5058593;28;20080;-32
2024/04/02 09:50:30;;;;;;;5.78;2.25;;;13.20;78.20;;;;;;5062146;28;20068;-32
2024/04/02 09:52:58;;;;;;;3.25;1.70;;;13.30;78.20;;;;;;5056111;28;20044;-33
2024/04/02 09:55:25;;;;;;;3.75;1.70;;;13.30;78.10;;;;;;5053775;28;20106;-39
2024/04/02 09:57:53;;;;;;;3.10;2.00;;;13.30;78.10;;;;;;5060861;28;20028;-38
2024/04/02 10:00:19;;;;;;;4.78;2.20;;;13.30;78.10;;;;;;5060591;28;20029;-32
2024/04/02 10:02:46;;;;;;;3.47;2.00;;;13.30;78.20;;;;;;5061772;28;20053;-31
2024/04/02 10:05:24;;;;;;;3.38;1.80;;;13.40;78.20;;;;;;5058740;28;20032;-32
2024/04/02 10:07:51;;;;;;;3.33;1.90;;;13.40;78.10;;;;;;5060295;28;20409;-34
2024/04/02 10:10:17;;;;;;;5.50;2.15;;;13.40;78.10;;;;;;5055508;28;20033;-32
2024/04/02 10:12:52;;;;;;;3.72;1.90;;;13.50;78.10;;;;;;5051682;28;20059;-34
2024/04/02 10:15:19;;;;;;;3.83;1.73;;;13.50;78.00;;;;;;5060732;28;20021;-33
2024/04/02 10:17:44;;;;;;;2.42;1.50;;;13.50;78.00;;;;;;5049795;28;20021;-35
2024/04/02 10:20:36;;;;;;;3.78;1.80;;;13.60;78.00;;;;;;5059002;28;20079;-34
2024/04/02 10:23:03;;;;;;;3.60;1.67;;;13.60;77.90;;;;;;5046992;28;20087;-34
2024/04/02 10:25:35;;;;;;;4.35;1.95;;;13.70;77.90;;;;;;5030716;28;20026;-36
2024/04/02 10:28:03;;;;;;;3.22;1.70;;;13.80;77.80;;;;;;5039167;28;20018;-33
2024/04/02 10:30:29;;;;;;;2.80;1.50;;;13.80;77.80;;;;;;5040285;28;20021;-33
2024/04/02 10:32:56;;;;;;;3.85;1.70;;;13.80;77.70;;;;;;5040102;28;20093;-36
2024/04/02 10:35:27;;;;;;;4.00;1.70;;;13.90;77.70;;;;;;5033559;28;20053;-33
2024/04/02 10:38:01;;;;;;;3.33;1.60;;;14.00;77.70;;;;;;5029163;28;20072;-34
2024/04/02 10:40:28;;;;;;;3.13;1.77;;;14.00;77.70;;;;;;5020967;28;20018;-36
2024/04/02 10:42:54;;;;;;;4.00;1.38;;;14.00;77.60;;;;;;5051546;28;20097;-33
2024/04/02 10:45:20;;;;;;;3.78;1.65;;;14.00;77.50;;;;;;5019832;28;20022;-32
2024/04/02 10:47:50;;;;;;;1.80;1.40;;;14.10;77.50;;;;;;5040075;28;20022;-37
2024/04/02 10:50:17;;;;;;;2.67;1.70;;;14.10;77.60;;;;;;5032160;28;20039;-39
2024/04/02 10:52:44;;;;;;;1.92;1.38;;;14.20;77.60;;;;;;5058331;28;20030;-33
2024/04/02 10:55:10;;;;;;;3.30;1.90;;;14.20;77.60;;;;;;5053592;28;20319;-35
2024/04/02 10:57:37;;;;;;;2.35;1.40;;;14.20;78.20;;;;;;5016190;28;20033;-37
2024/04/02 11:00:05;;;;;;;3.88;1.70;;;14.30;77.60;;;;;;5054675;28;20029;-34
2024/04/02 11:02:32;;;;;;;3.47;1.60;;;14.30;77.50;;;;;;5032551;28;20041;-32
2024/04/02 11:04:59;;;;;;;2.75;1.70;;;14.30;77.50;;;;;;5026246;28;20018;-35
2024/04/02 11:07:29;;;;;;;4.10;1.52;;;14.40;77.50;;;;;;5039883;28;20429;-31
2024/04/02 11:09:56;;;;;;;2.97;1.50;;;14.40;77.50;;;;;;5034040;28;20021;-35
2024/04/02 11:12:23;;;;;;;2.28;1.70;;;14.40;77.50;;;;;;5037551;28;20022;-36
2024/04/02 11:14:53;;;;;;;2.65;1.52;;;14.40;77.40;;;;;;5036276;28;20036;-34
2024/04/02 11:17:19;;;;;;;3.67;1.63;;;14.50;77.50;;;;;;5036033;28;20045;-35
2024/04/02 11:19:45;;;;;;;2.72;1.58;;;14.50;77.50;;;;;;5039367;28;20030;-34
2024/04/02 11:25:07;;;;;;;2.63;1.58;;;14.50;77.40;;;;;;5034714;28;20584;-32
2024/04/02 11:27:33;;;;;;;2.13;1.40;;;14.60;77.40;;;;;;5035217;28;20391;-33
2024/04/02 11:30:00;;;;;;;2.72;1.55;;;14.60;77.40;;;;;;5037561;28;20029;-34
2024/04/02 11:32:26;;;;;;;3.50;1.58;;;14.60;77.40;;;;;;5044117;28;20055;-33
2024/04/02 11:34:59;;;;;;;2.88;1.50;;;14.60;77.50;;;;;;5053719;28;20070;-33
2024/04/02 11:37:26;;;;;;;3.22;1.50;;;14.60;77.40;;;;;;5032924;28;20491;-34
2024/04/02 11:39:53;;;;;;;2.88;1.50;;;14.70;77.50;;;;;;5034888;28;20022;-33
2024/04/02 11:42:20;;;;;;;3.08;1.30;;;14.70;77.40;;;;;;5036161;28;20086;-33
2024/04/02 11:44:46;;;;;;;2.25;1.60;;;14.70;77.40;;;;;;5032399;28;20386;-35
2024/04/02 11:47:14;;;;;;;2.13;1.45;;;14.80;77.40;;;;;;5040439;28;20022;-35
2024/04/02 11:49:41;;;;;;;2.72;1.63;;;14.80;77.40;;;;;;5034473;28;20024;-36
2024/04/02 11:52:07;;;;;;;2.75;1.50;;;14.80;77.40;;;;;;5033457;28;20022;-34
2024/04/02 11:54:33;;;;;;;2.30;1.40;;;14.80;77.30;;;;;;5042082;28;20014;-35
2024/04/02 12:02:48;;;;;;;2.80;1.45;;;14.90;77.40;;;;;;5039717;28;20401;-34
2024/04/02 12:05:15;;;;;;;2.85;1.30;;;14.90;77.40;;;;;;5032839;28;20069;-30
2024/04/02 12:07:41;;;;;;;2.55;1.40;;;14.90;77.40;;;;;;5047796;28;20633;-37
2024/04/02 12:10:08;;;;;;;2.63;1.40;;;14.90;77.50;;;;;;5032435;28;20020;-33
2024/04/02 12:12:35;;;;;;;2.67;1.45;;;14.90;77.50;;;;;;5037932;28;20017;-38
2024/04/02 12:15:06;;;;;;;2.78;1.55;;;15.00;77.50;;;;;;5037425;28;20025;-35
2024/04/02 12:17:32;;;;;;;2.15;1.27;;;14.90;77.40;;;;;;5040976;28;20033;-33
2024/04/02 12:19:59;;;;;;;3.85;1.70;;;14.90;77.90;;;;;;5041494;28;20096;-36
2024/04/02 12:22:26;;;;;;;4.38;1.75;;;15.00;77.40;;;;;;5040639;28;20117;-32
2024/04/02 12:24:52;;;;;;;2.88;1.80;;;15.00;78.00;;;;;;5032505;28;20488;-35
2024/04/02 12:27:22;;;;;;;1.75;1.30;;;15.00;77.30;;;;;;5020463;28;20033;-34
2024/04/02 12:29:55;;;;;;;2.25;1.38;;;15.00;77.30;;;;;;5033670;28;20044;-33
2024/04/02 12:32:22;;;;;;;2.53;1.40;;;15.10;77.30;;;;;;5040618;28;20033;-36
2024/04/02 12:34:49;;;;;;;2.38;1.60;;;15.10;77.30;;;;;;5035456;28;20029;-36
2024/04/02 12:37:15;;;;;;;2.83;1.40;;;15.10;77.30;;;;;;5031478;28;20029;-35
2024/04/02 12:39:43;;;;;;;2.08;1.33;;;15.10;77.30;;;;;;5037071;28;20054;-34
2024/04/02 12:42:10;;;;;;;2.63;1.75;;;15.10;77.30;;;;;;5034620;28;20083;-35
2024/04/02 12:44:40;;;;;;;2.50;1.38;;;15.10;77.20;;;;;;5056375;28;20044;-31
2024/04/02 12:47:09;;;;;;;2.30;1.50;;;15.20;77.20;;;;;;5039027;28;20028;-32
2024/04/02 12:49:37;;;;;;;2.28;1.38;;;15.20;77.20;;;;;;5034344;28;20482;-35
2024/04/02 12:52:04;;;;;;;2.47;1.92;;;15.20;77.20;;;;;;5031912;28;20021;-34
2024/04/02 12:54:29;;;;;;;2.88;1.60;;;15.20;77.20;;;;;;5033635;28;20032;-33